Las Brenas, Argentina
Current Conditions -  °F | °C
As of 7:00 AM on Sunday 21 Dec 2014 (Local Time) from SARE Reporting Station
Thunderstorm Thunderstorm  
Wind Chill: 21°   Ceiling: 4500
Heat Index: 21°   Visibility: 1.5mi
Dew Point: 21°   Wind: 1mph
Humidity: 100%   Direction: 200°SSW
Pressure: 29.62"   Gusts: NA
Location:  27.08°S, 61.08°W
Report Text: SARE 211000Z 20001KT 2500 TSRA SCT008 OVC045 FEW056CB 21/21 Q1003
Loading
Personal Weather Stations






























Interactive Weather Map New forecast layout! Learn more

10-Day Weather Forecast

Advertisements
Track Severe Weather on mobile